Time;durP1;ratioP1;P1;durP2;ratioP2;P2;SDS_P1;SDS_P2;PMS_P1;PMS_P2;Temp;Humidity;BMP_temperature;BMP_pressure;BME280_temperature;BME280_humidity;BME280_pressure;Samples;Min_cycle;Max_cycle;Signal;HPM_P1;HPM_P2
2023/01/17 00:00:12;;;;;;;25.30;23.63;;;;;;;;;;5080853;28;20246;-81
2023/01/17 00:02:39;;;;;;;23.65;22.15;;;;;;;;;;5081237;28;20711;-82
2023/01/17 00:10:33;;;;;;;21.05;19.85;;;;;;;;;;5036176;28;20204;-82
2023/01/17 00:13:02;;;;;;;25.73;23.92;;;;;;;;;;5080842;28;20204;-82
2023/01/17 00:15:30;;;;;;;22.35;20.95;;;;;;;;;;5082302;28;20205;-81
2023/01/17 00:17:57;;;;;;;21.73;20.42;;;;;;;;;;5080106;28;20235;-81
2023/01/17 00:26:04;;;;;;;21.75;20.52;;;;;;;;;;5035808;28;20239;-81
2023/01/17 01:35:33;;;;;;;20.60;19.50;;;;;;;;;;5083118;28;20189;-80
2023/01/17 01:38:02;;;;;;;20.20;19.17;;;;;;;;;;5083386;28;20229;-81
2023/01/17 01:40:29;;;;;;;23.45;22.15;;;;;;;;;;5083001;28;20210;-81
2023/01/17 01:42:59;;;;;;;22.85;21.50;;;;;;;;;;5082482;28;20233;-82
2023/01/17 01:45:27;;;;;;;20.00;19.00;;;;;;;;;;5083293;28;20232;-81
2023/01/17 01:47:55;;;;;;;19.98;18.98;;;;;;;;;;5082827;28;20225;-80
2023/01/17 01:50:22;;;;;;;20.83;19.73;;;;;;;;;;5082829;28;20201;-81
2023/01/17 01:52:52;;;;;;;21.33;20.23;;;;;;;;;;5082431;28;20205;-81
2023/01/17 01:55:21;;;;;;;22.33;20.85;;;;;;;;;;5082310;28;20267;-81
2023/01/17 01:57:50;;;;;;;25.17;23.58;;;;;;;;;;5082970;28;20240;-81
2023/01/17 02:00:23;;;;;;;23.90;22.45;;;;;;;;;;5082608;28;20205;-81
2023/01/17 02:02:51;;;;;;;25.90;24.05;;;;;;;;;;5082762;28;20184;-81
2023/01/17 02:05:21;;;;;;;22.73;21.25;;;;;;;;;;5082171;28;20646;-81
2023/01/17 02:07:51;;;;;;;22.17;21.00;;;;;;;;;;5082311;28;20232;-81
2023/01/17 02:10:18;;;;;;;24.30;22.80;;;;;;;;;;5081994;28;20739;-80
2023/01/17 02:12:46;;;;;;;25.23;23.42;;;;;;;;;;5082001;28;20197;-81
2023/01/17 02:15:13;;;;;;;20.45;19.45;;;;;;;;;;5080874;28;20904;-81
2023/01/17 02:17:47;;;;;;;21.20;20.10;;;;;;;;;;5085431;28;20226;-81
2023/01/17 02:20:35;;;;;;;24.23;22.75;;;;;;;;;;5083055;28;20204;-80
2023/01/17 02:23:10;;;;;;;23.40;21.58;;;;;;;;;;5082010;28;20208;-82
2023/01/17 02:25:49;;;;;;;23.02;21.73;;;;;;;;;;5083179;28;20629;-81
2023/01/17 02:28:27;;;;;;;25.65;23.95;;;;;;;;;;5082716;28;20208;-81
2023/01/17 02:31:01;;;;;;;23.63;22.13;;;;;;;;;;5082042;28;20243;-81
2023/01/17 02:33:29;;;;;;;21.70;20.55;;;;;;;;;;5081975;28;20192;-81
2023/01/17 02:36:03;;;;;;;21.55;20.25;;;;;;;;;;5082079;28;20201;-81
2023/01/17 02:38:37;;;;;;;23.77;22.27;;;;;;;;;;5081514;28;20197;-81
2023/01/17 02:41:06;;;;;;;23.55;22.08;;;;;;;;;;5082257;28;20189;-81
2023/01/17 02:43:33;;;;;;;21.75;20.45;;;;;;;;;;5081433;28;20205;-81
2023/01/17 02:46:02;;;;;;;21.35;20.17;;;;;;;;;;5081479;28;20278;-81
2023/01/17 02:48:31;;;;;;;22.67;21.33;;;;;;;;;;5081993;28;20213;-81
2023/01/17 02:51:10;;;;;;;21.55;20.25;;;;;;;;;;5081974;28;20232;-81
2023/01/17 02:53:45;;;;;;;19.83;18.83;;;;;;;;;;5082674;28;20189;-81
2023/01/17 02:56:16;;;;;;;21.80;20.63;;;;;;;;;;5081923;28;20251;-81
2023/01/17 02:58:52;;;;;;;21.17;20.00;;;;;;;;;;5081824;28;20197;-81
2023/01/17 03:01:26;;;;;;;19.85;18.85;;;;;;;;;;5086858;28;20216;-81
2023/01/17 03:03:55;;;;;;;19.70;18.70;;;;;;;;;;5081463;28;20215;-81
2023/01/17 03:06:25;;;;;;;19.80;18.80;;;;;;;;;;5081824;28;20226;-82
2023/01/17 03:08:53;;;;;;;20.90;19.73;;;;;;;;;;5082303;28;20188;-80
2023/01/17 03:11:21;;;;;;;19.40;18.40;;;;;;;;;;5081196;28;20261;-81
2023/01/17 03:13:48;;;;;;;20.90;19.80;;;;;;;;;;5080653;28;20209;-81
2023/01/17 03:16:17;;;;;;;20.27;19.27;;;;;;;;;;5081897;28;20263;-81
2023/01/17 03:18:46;;;;;;;19.60;18.50;;;;;;;;;;5080535;28;20213;-81
2023/01/17 03:21:13;;;;;;;20.45;19.35;;;;;;;;;;5081224;28;20205;-80
2023/01/17 03:23:40;;;;;;;20.88;19.77;;;;;;;;;;5080823;28;20201;-81
2023/01/17 03:26:07;;;;;;;19.55;18.58;;;;;;;;;;5081069;28;20295;-81
2023/01/17 03:28:34;;;;;;;18.80;17.90;;;;;;;;;;5081364;28;20207;-82
2023/01/17 03:31:01;;;;;;;20.92;19.92;;;;;;;;;;5081037;28;20661;-81
2023/01/17 03:33:28;;;;;;;19.23;18.33;;;;;;;;;;5080930;28;20231;-81
2023/01/17 03:35:58;;;;;;;20.35;19.20;;;;;;;;;;5081047;28;20613;-81
2023/01/17 03:38:25;;;;;;;20.13;19.17;;;;;;;;;;5080941;28;20201;-81
2023/01/17 03:40:52;;;;;;;19.95;19.05;;;;;;;;;;5080829;28;20236;-81
2023/01/17 03:43:19;;;;;;;18.63;17.75;;;;;;;;;;5079711;28;20563;-80
2023/01/17 03:45:49;;;;;;;19.30;18.33;;;;;;;;;;5081042;28;20247;-81
2023/01/17 03:48:16;;;;;;;18.50;17.60;;;;;;;;;;5080885;28;20567;-81
2023/01/17 03:50:43;;;;;;;18.00;17.20;;;;;;;;;;5080748;28;20279;-81
2023/01/17 03:53:11;;;;;;;17.83;17.02;;;;;;;;;;5080041;28;20201;-81
2023/01/17 03:55:38;;;;;;;18.65;17.75;;;;;;;;;;5080433;28;20208;-81
2023/01/17 03:58:05;;;;;;;18.30;17.50;;;;;;;;;;5080042;28;20225;-81
2023/01/17 04:00:32;;;;;;;17.80;17.00;;;;;;;;;;5080875;28;20220;-81
2023/01/17 04:02:59;;;;;;;17.60;16.80;;;;;;;;;;5079986;28;20207;-80
2023/01/17 04:05:26;;;;;;;17.85;17.05;;;;;;;;;;5080686;28;20259;-81
2023/01/17 04:07:53;;;;;;;18.58;17.77;;;;;;;;;;5080606;28;20220;-80
2023/01/17 04:10:21;;;;;;;18.25;17.45;;;;;;;;;;5079948;28;20258;-81
2023/01/17 04:12:48;;;;;;;18.73;17.92;;;;;;;;;;5080404;28;20220;-81
2023/01/17 04:15:16;;;;;;;18.50;17.70;;;;;;;;;;5079565;28;20727;-81
2023/01/17 04:17:43;;;;;;;18.30;17.50;;;;;;;;;;5080020;28;20304;-81
2023/01/17 04:20:14;;;;;;;18.50;17.70;;;;;;;;;;5080767;28;20209;-81
2023/01/17 04:22:41;;;;;;;18.80;17.80;;;;;;;;;;5079976;28;20208;-81
2023/01/17 04:25:09;;;;;;;18.70;17.90;;;;;;;;;;5080074;28;20381;-81
2023/01/17 04:27:37;;;;;;;20.05;18.95;;;;;;;;;;5080178;28;20563;-82
2023/01/17 04:30:05;;;;;;;18.95;17.98;;;;;;;;;;5079705;28;20203;-81
2023/01/17 04:32:32;;;;;;;19.80;18.77;;;;;;;;;;5079233;28;20254;-81
2023/01/17 04:34:59;;;;;;;18.90;18.10;;;;;;;;;;5078707;28;20211;-81
2023/01/17 04:37:26;;;;;;;19.60;18.70;;;;;;;;;;5078915;28;20589;-82
2023/01/17 04:39:53;;;;;;;22.38;21.17;;;;;;;;;;5079899;28;20210;-81
2023/01/17 04:42:20;;;;;;;25.65;23.85;;;;;;;;;;5079446;28;20204;-81
2023/01/17 04:44:48;;;;;;;28.77;26.13;;;;;;;;;;5079755;28;20209;-81
2023/01/17 04:47:15;;;;;;;24.08;22.48;;;;;;;;;;5080134;28;20235;-81
2023/01/17 04:49:42;;;;;;;21.02;19.92;;;;;;;;;;5079505;28;20199;-81
2023/01/17 04:52:09;;;;;;;23.08;21.90;;;;;;;;;;5080426;28;20236;-81
2023/01/17 04:54:36;;;;;;;20.77;19.77;;;;;;;;;;5079525;28;20231;-81
2023/01/17 04:57:03;;;;;;;21.50;20.40;;;;;;;;;;5079473;28;20254;-81
2023/01/17 04:59:30;;;;;;;30.73;28.30;;;;;;;;;;5079350;28;20621;-82
2023/01/17 05:01:59;;;;;;;30.70;28.17;;;;;;;;;;5079442;28;20210;-81
2023/01/17 05:04:26;;;;;;;22.55;21.35;;;;;;;;;;5078856;28;20210;-81
2023/01/17 05:06:53;;;;;;;21.30;20.30;;;;;;;;;;5079270;28;20225;-81
2023/01/17 05:09:21;;;;;;;21.17;20.17;;;;;;;;;;5079886;28;20640;-81
2023/01/17 05:11:48;;;;;;;20.90;19.80;;;;;;;;;;5079417;28;20212;-81
2023/01/17 05:14:15;;;;;;;22.20;21.10;;;;;;;;;;5079040;28;20199;-81
2023/01/17 05:16:42;;;;;;;20.90;19.90;;;;;;;;;;5080687;28;20323;-81
2023/01/17 05:19:10;;;;;;;21.50;20.50;;;;;;;;;;5080121;28;20317;-81
2023/01/17 05:21:37;;;;;;;20.95;19.95;;;;;;;;;;5080169;28;20733;-81
2023/01/17 05:24:04;;;;;;;21.00;20.00;;;;;;;;;;5079989;28;20247;-81
2023/01/17 05:26:31;;;;;;;20.67;19.67;;;;;;;;;;5079250;28;20227;-81
2023/01/17 05:28:58;;;;;;;20.70;19.70;;;;;;;;;;5080062;28;20215;-81
2023/01/17 05:31:25;;;;;;;20.23;19.23;;;;;;;;;;5079490;28;20204;-81
2023/01/17 05:33:52;;;;;;;20.65;19.65;;;;;;;;;;5079064;28;20196;-81
2023/01/17 05:36:22;;;;;;;20.75;19.75;;;;;;;;;;5080491;28;20220;-81
2023/01/17 05:38:49;;;;;;;20.70;19.70;;;;;;;;;;5079954;28;20205;-81
2023/01/17 05:41:16;;;;;;;20.48;19.48;;;;;;;;;;5079391;28;20232;-81
2023/01/17 05:43:43;;;;;;;20.20;19.20;;;;;;;;;;5078375;28;20208;-81
2023/01/17 05:46:10;;;;;;;20.13;19.10;;;;;;;;;;5078861;28;20651;-81
2023/01/17 05:48:37;;;;;;;20.80;19.80;;;;;;;;;;5081089;28;20209;-81
2023/01/17 05:51:04;;;;;;;20.60;19.50;;;;;;;;;;5083363;28;20209;-81
2023/01/17 05:53:32;;;;;;;20.38;19.38;;;;;;;;;;5081547;28;20230;-81
2023/01/17 05:55:59;;;;;;;19.15;18.15;;;;;;;;;;5082972;28;20230;-81
2023/01/17 05:58:26;;;;;;;20.90;19.90;;;;;;;;;;5082038;28;20209;-82
2023/01/17 06:00:53;;;;;;;20.60;19.60;;;;;;;;;;5082973;28;20236;-81
2023/01/17 06:03:20;;;;;;;21.60;20.50;;;;;;;;;;5081470;28;20193;-82
2023/01/17 06:05:48;;;;;;;22.92;21.70;;;;;;;;;;5082426;28;20611;-81
2023/01/17 06:08:15;;;;;;;22.08;20.98;;;;;;;;;;5082434;28;20195;-81
2023/01/17 06:10:44;;;;;;;22.33;21.23;;;;;;;;;;5081897;28;20213;-81
2023/01/17 06:13:13;;;;;;;23.38;22.17;;;;;;;;;;5082190;28;20204;-82
2023/01/17 06:15:40;;;;;;;21.80;20.70;;;;;;;;;;5082621;28;20200;-81
2023/01/17 06:18:07;;;;;;;24.25;22.95;;;;;;;;;;5081932;28;20248;-81
2023/01/17 06:20:34;;;;;;;23.40;22.30;;;;;;;;;;5081922;28;20553;-80
2023/01/17 06:23:03;;;;;;;24.67;23.25;;;;;;;;;;5081662;28;20576;-81
2023/01/17 06:25:30;;;;;;;24.05;22.65;;;;;;;;;;5082674;28;20215;-81
2023/01/17 06:27:58;;;;;;;23.70;22.40;;;;;;;;;;5081898;28;20223;-81
2023/01/17 06:30:25;;;;;;;24.80;23.33;;;;;;;;;;5081598;28;20214;-80
2023/01/17 06:32:53;;;;;;;22.60;21.40;;;;;;;;;;5081207;28;20196;-82
2023/01/17 06:35:20;;;;;;;22.50;21.27;;;;;;;;;;5081337;28;20663;-81
2023/01/17 06:37:50;;;;;;;22.40;21.20;;;;;;;;;;5081613;28;20233;-81
2023/01/17 06:40:17;;;;;;;22.95;21.65;;;;;;;;;;5082043;28;20200;-82
2023/01/17 06:42:45;;;;;;;22.25;21.05;;;;;;;;;;5081788;28;20202;-81
2023/01/17 06:45:13;;;;;;;23.95;22.65;;;;;;;;;;5081470;28;20215;-81
2023/01/17 06:47:40;;;;;;;23.05;21.65;;;;;;;;;;5081862;28;20287;-81
2023/01/17 06:50:09;;;;;;;22.42;21.23;;;;;;;;;;5082106;28;20206;-80
2023/01/17 06:52:36;;;;;;;24.52;23.13;;;;;;;;;;5081367;28;20205;-81
2023/01/17 06:55:03;;;;;;;23.27;21.80;;;;;;;;;;5080703;28;20232;-81
2023/01/17 06:57:30;;;;;;;23.30;21.80;;;;;;;;;;5081164;28;20342;-81
2023/01/17 06:59:57;;;;;;;23.38;20.95;;;;;;;;;;5096848;28;20653;-81
2023/01/17 07:02:25;;;;;;;23.00;21.80;;;;;;;;;;5101621;28;20202;-81
2023/01/17 07:04:54;;;;;;;23.08;21.77;;;;;;;;;;5100959;28;20302;-81
2023/01/17 07:07:21;;;;;;;24.25;22.75;;;;;;;;;;5102475;28;20272;-81
2023/01/17 07:09:48;;;;;;;22.85;21.35;;;;;;;;;;5103963;28;20893;-81
2023/01/17 07:12:15;;;;;;;23.27;21.95;;;;;;;;;;5101726;28;20200;-81
2023/01/17 07:14:42;;;;;;;22.20;20.90;;;;;;;;;;5101293;28;20563;-81
2023/01/17 07:17:09;;;;;;;22.13;20.83;;;;;;;;;;5101106;28;20219;-80
2023/01/17 07:19:37;;;;;;;23.73;22.33;;;;;;;;;;5101141;28;20204;-81
2023/01/17 07:22:04;;;;;;;23.85;21.95;;;;;;;;;;5101348;28;20256;-81
2023/01/17 07:24:35;;;;;;;22.67;21.23;;;;;;;;;;5100997;28;20733;-81
2023/01/17 07:27:02;;;;;;;21.08;19.90;;;;;;;;;;5100363;28;20231;-81
2023/01/17 07:29:29;;;;;;;23.25;21.75;;;;;;;;;;5100143;28;20211;-81
2023/01/17 07:31:56;;;;;;;23.33;21.75;;;;;;;;;;5100585;28;20216;-82
2023/01/17 07:34:23;;;;;;;24.10;22.40;;;;;;;;;;5100769;28;20229;-81
2023/01/17 07:36:53;;;;;;;22.25;20.92;;;;;;;;;;5103151;28;20227;-81
2023/01/17 07:39:20;;;;;;;20.85;19.52;;;;;;;;;;5102143;28;20259;-82
2023/01/17 07:41:47;;;;;;;20.50;19.30;;;;;;;;;;5103299;28;20209;-82
2023/01/17 07:44:14;;;;;;;23.27;21.35;;;;;;;;;;5102235;28;20219;-81
2023/01/17 07:46:41;;;;;;;23.20;21.80;;;;;;;;;;5102677;28;20289;-81
2023/01/17 07:49:09;;;;;;;21.48;19.90;;;;;;;;;;5102724;28;20203;-81
2023/01/17 07:51:36;;;;;;;22.40;20.80;;;;;;;;;;5101780;28;20212;-82
2023/01/17 07:54:04;;;;;;;21.65;20.40;;;;;;;;;;5102534;28;20260;-82
2023/01/17 07:56:31;;;;;;;22.40;20.80;;;;;;;;;;5103170;28;20215;-82
2023/01/17 07:58:58;;;;;;;22.63;21.10;;;;;;;;;;5103056;28;20211;-82
2023/01/17 08:01:26;;;;;;;22.73;21.33;;;;;;;;;;5103333;28;20203;-81
2023/01/17 08:03:53;;;;;;;22.20;20.80;;;;;;;;;;5102769;28;20240;-81
2023/01/17 08:06:22;;;;;;;21.48;20.27;;;;;;;;;;5103573;28;20721;-82
2023/01/17 08:08:49;;;;;;;22.55;20.88;;;;;;;;;;5102690;28;20235;-82
2023/01/17 08:11:17;;;;;;;23.55;21.92;;;;;;;;;;5103560;28;20219;-82
2023/01/17 08:13:44;;;;;;;24.58;22.50;;;;;;;;;;5102518;28;20208;-82
2023/01/17 08:16:11;;;;;;;23.58;22.08;;;;;;;;;;5102733;28;20221;-82
2023/01/17 08:18:39;;;;;;;24.42;22.75;;;;;;;;;;5102285;28;20208;-81
2023/01/17 08:21:12;;;;;;;22.10;20.65;;;;;;;;;;5102897;28;20203;-81
2023/01/17 08:23:39;;;;;;;22.60;21.20;;;;;;;;;;5102003;28;20207;-82
2023/01/17 08:26:06;;;;;;;23.33;21.50;;;;;;;;;;5102501;28;20219;-82
2023/01/17 08:28:34;;;;;;;24.00;22.10;;;;;;;;;;5102114;28;20232;-82
2023/01/17 08:31:06;;;;;;;22.55;20.65;;;;;;;;;;5102979;28;20204;-82
2023/01/17 08:33:33;;;;;;;20.85;19.75;;;;;;;;;;5102325;28;20225;-82
2023/01/17 08:36:00;;;;;;;21.63;20.23;;;;;;;;;;5102845;28;20197;-82
2023/01/17 08:38:27;;;;;;;20.67;19.48;;;;;;;;;;5102989;28;20203;-82
2023/01/17 08:40:54;;;;;;;21.85;20.45;;;;;;;;;;5102363;28;20658;-81
2023/01/17 08:43:21;;;;;;;24.35;22.50;;;;;;;;;;5101928;28;20208;-82
2023/01/17 08:45:54;;;;;;;24.05;22.27;;;;;;;;;;5102825;28;20600;-81
2023/01/17 08:48:21;;;;;;;20.10;19.10;;;;;;;;;;5099664;28;20227;-82
2023/01/17 08:50:49;;;;;;;20.33;19.13;;;;;;;;;;5098095;28;20221;-82
2023/01/17 08:53:16;;;;;;;22.52;21.23;;;;;;;;;;5096902;28;20295;-83
2023/01/17 08:55:43;;;;;;;22.55;21.15;;;;;;;;;;5097468;28;20214;-83
2023/01/17 08:58:10;;;;;;;23.25;21.42;;;;;;;;;;5098212;28;20200;-82
2023/01/17 09:00:38;;;;;;;21.98;20.58;;;;;;;;;;5098459;28;20195;-82
2023/01/17 09:03:11;;;;;;;24.98;22.85;;;;;;;;;;5097844;28;20232;-83
2023/01/17 09:05:37;;;;;;;21.48;20.17;;;;;;;;;;5098256;28;20193;-83
2023/01/17 09:08:05;;;;;;;21.95;20.65;;;;;;;;;;5097506;28;20232;-82
2023/01/17 09:10:32;;;;;;;23.55;21.27;;;;;;;;;;5098310;28;20205;-82
2023/01/17 09:12:59;;;;;;;24.33;22.55;;;;;;;;;;5096816;28;20268;-84
2023/01/17 09:15:26;;;;;;;21.10;20.00;;;;;;;;;;5097838;28;20230;-82
2023/01/17 09:17:55;;;;;;;23.65;22.15;;;;;;;;;;5098033;28;20219;-83
2023/01/17 09:20:23;;;;;;;25.40;23.65;;;;;;;;;;5098054;28;20615;-82
2023/01/17 09:22:51;;;;;;;22.83;20.90;;;;;;;;;;5097571;28;20211;-84
2023/01/17 09:25:18;;;;;;;23.25;21.55;;;;;;;;;;5101495;28;20199;-84
2023/01/17 09:27:45;;;;;;;20.98;19.65;;;;;;;;;;5100968;28;20219;-82
2023/01/17 09:30:13;;;;;;;22.80;21.30;;;;;;;;;;5102695;28;20204;-83
2023/01/17 09:32:39;;;;;;;21.20;19.90;;;;;;;;;;5101464;28;20229;-84
2023/01/17 09:35:08;;;;;;;23.73;21.92;;;;;;;;;;5101864;28;20204;-82
2023/01/17 09:37:36;;;;;;;23.85;22.25;;;;;;;;;;5101010;28;20220;-82
2023/01/17 09:40:03;;;;;;;23.23;21.65;;;;;;;;;;5101744;28;20205;-82
2023/01/17 09:42:35;;;;;;;23.48;21.60;;;;;;;;;;5101006;28;20215;-82
2023/01/17 09:45:02;;;;;;;24.60;22.90;;;;;;;;;;5101377;28;20196;-83
2023/01/17 09:47:32;;;;;;;22.00;20.48;;;;;;;;;;5100878;28;20262;-84
2023/01/17 09:50:03;;;;;;;22.48;20.92;;;;;;;;;;5101298;28;20238;-83
2023/01/17 09:52:31;;;;;;;21.73;20.33;;;;;;;;;;5100902;28;20185;-82
2023/01/17 09:54:59;;;;;;;21.88;20.25;;;;;;;;;;5100490;28;20256;-82
2023/01/17 09:57:34;;;;;;;20.23;19.13;;;;;;;;;;5101527;28;20225;-83
2023/01/17 10:00:06;;;;;;;23.48;21.88;;;;;;;;;;5102178;28;20265;-83
2023/01/17 10:02:41;;;;;;;22.20;20.80;;;;;;;;;;5103125;28;20229;-81
2023/01/17 10:05:16;;;;;;;23.60;21.92;;;;;;;;;;5100070;28;20188;-86
2023/01/17 10:07:45;;;;;;;22.88;21.40;;;;;;;;;;5099274;28;20224;-82
2023/01/17 10:10:29;;;;;;;27.25;25.17;;;;;;;;;;5100198;28;20215;-82
2023/01/17 10:12:59;;;;;;;23.67;22.15;;;;;;;;;;5099411;28;20203;-83
2023/01/17 10:15:36;;;;;;;24.77;23.10;;;;;;;;;;5099122;28;20215;-81
2023/01/17 10:18:10;;;;;;;26.73;24.55;;;;;;;;;;5100033;28;20220;-85
2023/01/17 10:20:44;;;;;;;26.58;24.52;;;;;;;;;;5100416;28;20624;-83
2023/01/17 10:23:28;;;;;;;28.40;25.70;;;;;;;;;;5099300;28;20308;-83
2023/01/17 10:25:58;;;;;;;28.83;26.45;;;;;;;;;;5099879;28;20210;-84
2023/01/17 10:28:28;;;;;;;27.25;24.88;;;;;;;;;;5100957;28;20285;-81
2023/01/17 10:30:58;;;;;;;24.70;22.52;;;;;;;;;;5100419;28;20200;-84
2023/01/17 10:33:27;;;;;;;26.67;24.58;;;;;;;;;;5099958;28;20196;-83
2023/01/17 10:35:56;;;;;;;26.98;24.98;;;;;;;;;;5098705;28;20647;-84
2023/01/17 10:38:27;;;;;;;25.15;23.27;;;;;;;;;;5099458;28;20286;-82
2023/01/17 10:40:55;;;;;;;27.83;25.50;;;;;;;;;;5099907;28;20705;-82
2023/01/17 10:43:27;;;;;;;26.85;24.67;;;;;;;;;;5099036;28;20578;-83
2023/01/17 10:45:55;;;;;;;27.55;25.30;;;;;;;;;;5099905;28;20652;-83
2023/01/17 10:48:29;;;;;;;26.45;24.55;;;;;;;;;;5101039;28;20228;-82
2023/01/17 10:50:59;;;;;;;25.30;23.40;;;;;;;;;;5100927;28;20187;-82
2023/01/17 10:53:34;;;;;;;23.17;21.63;;;;;;;;;;5099886;28;20204;-82
2023/01/17 10:56:01;;;;;;;25.17;23.17;;;;;;;;;;5100582;28;20190;-84
2023/01/17 10:58:30;;;;;;;23.92;22.23;;;;;;;;;;5100079;28;20204;-82
2023/01/17 11:00:59;;;;;;;23.27;21.83;;;;;;;;;;5100134;28;20211;-81
2023/01/17 11:03:27;;;;;;;25.92;23.92;;;;;;;;;;5098947;28;20195;-81
2023/01/17 11:06:24;;;;;;;25.90;24.15;;;;;;;;;;5099117;28;20271;-83
2023/01/17 11:08:53;;;;;;;30.85;27.58;;;;;;;;;;5057111;28;20210;-83
2023/01/17 11:11:20;;;;;;;32.15;29.45;;;;;;;;;;5089886;28;20199;-81
2023/01/17 11:13:50;;;;;;;27.48;25.38;;;;;;;;;;5098134;28;20259;-82
2023/01/17 11:16:19;;;;;;;30.58;27.27;;;;;;;;;;5097907;28;20231;-82
2023/01/17 11:18:47;;;;;;;26.30;24.50;;;;;;;;;;5098964;28;20287;-83
2023/01/17 11:21:16;;;;;;;29.17;26.77;;;;;;;;;;5098654;28;20244;-83
2023/01/17 11:23:44;;;;;;;30.08;27.48;;;;;;;;;;5101537;28;20258;-88
2023/01/17 11:26:13;;;;;;;27.20;25.10;;;;;;;;;;5100734;28;20225;-80
2023/01/17 11:28:41;;;;;;;25.30;23.40;;;;;;;;;;5097024;28;20578;-88
2023/01/17 11:31:24;;;;;;;28.90;26.70;;;;;;;;;;5097237;28;20205;-87
2023/01/17 11:33:54;;;;;;;29.55;27.10;;;;;;;;;;5099639;28;20209;-89
2023/01/17 11:36:23;;;;;;;26.92;24.67;;;;;;;;;;5098619;28;20759;-89
2023/01/17 11:38:58;;;;;;;27.05;24.95;;;;;;;;;;5096791;28;20652;-89
2023/01/17 11:41:26;;;;;;;31.67;28.55;;;;;;;;;;5097568;28;20249;-87
2023/01/17 11:43:54;;;;;;;24.58;22.73;;;;;;;;;;5100240;28;20203;-88
2023/01/17 11:46:23;;;;;;;27.17;25.33;;;;;;;;;;5097877;28;20266;-90
2023/01/17 11:48:51;;;;;;;30.88;27.92;;;;;;;;;;5096909;28;20274;-90
2023/01/17 11:51:21;;;;;;;28.50;26.20;;;;;;;;;;5098062;28;20200;-90
2023/01/17 11:53:48;;;;;;;31.67;29.13;;;;;;;;;;5098194;28;20319;-90
2023/01/17 11:56:26;;;;;;;31.30;28.63;;;;;;;;;;5098904;28;20233;-89
2023/01/17 11:58:53;;;;;;;31.30;28.65;;;;;;;;;;5100142;28;20187;-89
2023/01/17 12:01:31;;;;;;;33.08;30.20;;;;;;;;;;5102158;28;20202;-88
2023/01/17 12:04:13;;;;;;;32.80;29.83;;;;;;;;;;5102692;28;20211;-88
2023/01/17 12:06:46;;;;;;;31.48;28.73;;;;;;;;;;5104451;28;20281;-88
2023/01/17 12:09:21;;;;;;;30.55;27.98;;;;;;;;;;5103355;28;20219;-87
2023/01/17 12:14:39;;;;;;;23.45;21.85;;;;;;;;;;5101054;28;20219;-83
2023/01/17 12:17:14;;;;;;;32.50;29.80;;;;;;;;;;5100434;28;20224;-83
2023/01/17 12:19:52;;;;;;;30.92;28.23;;;;;;;;;;5099426;28;20195;-83
2023/01/17 12:22:24;;;;;;;31.08;28.35;;;;;;;;;;5099990;28;20209;-86
2023/01/17 12:25:02;;;;;;;31.48;28.88;;;;;;;;;;5099101;28;20540;-85
2023/01/17 12:27:35;;;;;;;31.10;28.40;;;;;;;;;;5100538;28;20554;-84
2023/01/17 12:30:12;;;;;;;27.75;25.60;;;;;;;;;;5100703;28;20205;-83
2023/01/17 12:32:57;;;;;;;31.45;28.35;;;;;;;;;;5098655;28;20207;-84
2023/01/17 12:35:28;;;;;;;26.13;24.15;;;;;;;;;;5098912;28;20197;-82
2023/01/17 12:37:57;;;;;;;25.70;23.83;;;;;;;;;;5100053;28;20282;-82
2023/01/17 12:40:26;;;;;;;28.20;25.80;;;;;;;;;;5100849;28;20213;-84
2023/01/17 12:42:56;;;;;;;29.17;26.60;;;;;;;;;;5100220;28;20277;-83
2023/01/17 12:45:27;;;;;;;30.92;28.15;;;;;;;;;;5102106;28;20259;-83
2023/01/17 12:47:59;;;;;;;29.85;27.27;;;;;;;;;;5101268;28;20223;-82
2023/01/17 12:50:29;;;;;;;30.42;27.73;;;;;;;;;;5099380;28;20212;-83
2023/01/17 12:53:01;;;;;;;29.08;26.48;;;;;;;;;;5099486;28;20213;-83
2023/01/17 12:55:35;;;;;;;28.65;25.95;;;;;;;;;;5098924;28;20695;-83
2023/01/17 12:58:03;;;;;;;29.98;27.25;;;;;;;;;;5095535;28;20269;-83
2023/01/17 13:00:31;;;;;;;27.80;25.67;;;;;;;;;;5099568;28;20203;-82
2023/01/17 13:03:04;;;;;;;27.58;25.13;;;;;;;;;;5099390;28;20254;-84
2023/01/17 13:05:39;;;;;;;23.23;21.83;;;;;;;;;;5101257;28;20218;-84
2023/01/17 13:08:13;;;;;;;26.70;24.70;;;;;;;;;;5100001;28;20218;-85
2023/01/17 13:10:44;;;;;;;27.92;25.50;;;;;;;;;;5101378;28;20185;-84
2023/01/17 13:13:18;;;;;;;28.60;26.00;;;;;;;;;;5101011;28;20724;-83
2023/01/17 13:15:46;;;;;;;23.77;22.08;;;;;;;;;;5098003;28;20231;-84
2023/01/17 13:18:21;;;;;;;24.70;22.95;;;;;;;;;;5099250;28;20271;-82
2023/01/17 13:20:55;;;;;;;27.50;25.48;;;;;;;;;;5100297;28;20299;-84
2023/01/17 13:23:28;;;;;;;26.10;24.17;;;;;;;;;;5098854;28;20247;-83
2023/01/17 13:25:56;;;;;;;26.52;24.52;;;;;;;;;;5097972;28;20206;-90
2023/01/17 13:28:28;;;;;;;25.48;23.65;;;;;;;;;;5102067;28;20212;-81
2023/01/17 13:31:13;;;;;;;24.90;22.98;;;;;;;;;;5110766;28;20249;-80
2023/01/17 13:33:53;;;;;;;25.70;23.90;;;;;;;;;;5111085;28;20545;-81
2023/01/17 13:36:28;;;;;;;25.95;23.75;;;;;;;;;;5101470;28;20235;-80
2023/01/17 13:39:01;;;;;;;27.45;25.25;;;;;;;;;;5097555;28;20192;-81
2023/01/17 13:41:36;;;;;;;26.55;24.10;;;;;;;;;;5096429;28;20214;-80
2023/01/17 13:44:23;;;;;;;29.48;26.88;;;;;;;;;;5098794;28;20733;-81
2023/01/17 13:46:54;;;;;;;27.92;25.45;;;;;;;;;;5098888;28;20229;-81
2023/01/17 13:49:32;;;;;;;26.50;24.38;;;;;;;;;;5097995;28;20220;-80
2023/01/17 13:52:08;;;;;;;26.63;24.25;;;;;;;;;;5097604;28;20251;-80
2023/01/17 13:54:42;;;;;;;25.40;23.60;;;;;;;;;;5096969;28;20203;-81
2023/01/17 13:57:30;;;;;;;26.83;24.73;;;;;;;;;;5098068;28;20276;-80
2023/01/17 14:02:37;;;;;;;25.27;23.67;;;;;;;;;;5187628;22;20861;-79
2023/01/17 14:05:10;;;;;;;29.48;27.25;;;;;;;;;;5033306;28;20223;-77
2023/01/17 14:07:41;;;;;;;26.50;24.08;;;;;;;;;;5034023;28;20187;-79
2023/01/17 14:10:21;;;;;;;26.40;24.10;;;;;;;;;;5035887;28;20273;-83
2023/01/17 14:12:49;;;;;;;25.00;23.10;;;;;;;;;;5036325;28;20225;-80
2023/01/17 14:15:20;;;;;;;24.65;22.83;;;;;;;;;;5036883;28;20663;-80
2023/01/17 14:17:57;;;;;;;24.90;23.20;;;;;;;;;;5037644;28;20199;-80
2023/01/17 14:20:43;;;;;;;25.17;23.17;;;;;;;;;;5036291;28;20215;-80
2023/01/17 14:23:29;;;;;;;26.20;24.05;;;;;;;;;;5036662;28;20714;-79
2023/01/17 14:25:58;;;;;;;28.15;25.58;;;;;;;;;;5037165;28;20249;-79
2023/01/17 14:28:30;;;;;;;26.45;24.35;;;;;;;;;;5037266;28;20259;-80
2023/01/17 14:30:58;;;;;;;25.88;23.90;;;;;;;;;;5036483;28;20192;-80
2023/01/17 14:33:28;;;;;;;25.73;23.90;;;;;;;;;;5036959;28;20222;-79
2023/01/17 14:35:56;;;;;;;26.77;24.60;;;;;;;;;;5037658;28;20244;-80
2023/01/17 14:38:24;;;;;;;24.05;22.35;;;;;;;;;;5037351;28;20214;-79
2023/01/17 14:40:53;;;;;;;26.33;24.35;;;;;;;;;;5036801;28;20182;-80
2023/01/17 14:43:22;;;;;;;24.13;22.52;;;;;;;;;;5037206;28;20292;-79
2023/01/17 14:45:49;;;;;;;25.75;23.77;;;;;;;;;;5036933;28;20237;-78
2023/01/17 14:48:18;;;;;;;26.20;24.00;;;;;;;;;;5035598;28;20225;-79
2023/01/17 14:50:46;;;;;;;25.42;23.48;;;;;;;;;;5035637;28;20233;-79
2023/01/17 14:53:20;;;;;;;27.35;25.05;;;;;;;;;;5036666;28;20274;-79
2023/01/17 14:55:56;;;;;;;27.00;24.48;;;;;;;;;;5037821;28;20209;-79
2023/01/17 14:58:25;;;;;;;26.52;24.20;;;;;;;;;;5037189;28;20210;-79
2023/01/17 15:00:53;;;;;;;25.95;24.23;;;;;;;;;;5036747;28;20269;-80
2023/01/17 15:03:21;;;;;;;32.85;29.70;;;;;;;;;;5036352;28;20234;-79
2023/01/17 15:05:50;;;;;;;26.55;24.05;;;;;;;;;;5037526;28;20221;-79
2023/01/17 15:08:18;;;;;;;26.55;24.20;;;;;;;;;;5037709;28;20207;-79
2023/01/17 15:10:48;;;;;;;52.70;36.92;;;;;;;;;;5036395;28;20759;-79
2023/01/17 15:13:17;;;;;;;28.35;26.20;;;;;;;;;;5037039;28;20229;-80
2023/01/17 15:15:45;;;;;;;30.60;28.05;;;;;;;;;;5037470;28;20207;-79
2023/01/17 15:18:19;;;;;;;24.55;22.60;;;;;;;;;;5036319;28;20669;-81
2023/01/17 15:20:49;;;;;;;24.55;22.98;;;;;;;;;;5036230;28;20205;-80
2023/01/17 15:23:17;;;;;;;26.77;24.98;;;;;;;;;;5036795;28;20232;-79
2023/01/17 15:25:45;;;;;;;23.08;21.50;;;;;;;;;;5036922;28;20673;-79
2023/01/17 15:28:12;;;;;;;26.90;24.75;;;;;;;;;;5037253;28;20214;-80
2023/01/17 15:30:54;;;;;;;24.08;22.38;;;;;;;;;;5036757;28;20341;-81
2023/01/17 15:33:23;;;;;;;25.13;23.42;;;;;;;;;;5036165;28;20597;-79
2023/01/17 15:35:58;;;;;;;25.33;23.40;;;;;;;;;;5036789;28;20207;-79
2023/01/17 15:38:25;;;;;;;26.77;24.48;;;;;;;;;;5036487;28;20225;-79
2023/01/17 15:40:52;;;;;;;26.90;24.98;;;;;;;;;;5036304;28;20213;-79
2023/01/17 15:43:21;;;;;;;25.58;23.85;;;;;;;;;;5036050;28;20596;-80
2023/01/17 15:45:54;;;;;;;26.52;24.67;;;;;;;;;;5036416;28;20666;-79
2023/01/17 15:48:31;;;;;;;24.55;22.75;;;;;;;;;;5036531;28;20191;-79
2023/01/17 15:50:58;;;;;;;25.58;23.58;;;;;;;;;;5036171;28;20266;-79
2023/01/17 15:53:30;;;;;;;26.25;24.02;;;;;;;;;;5036544;28;20312;-82